Time;durP1;ratioP1;P1;durP2;ratioP2;P2;SDS_P1;SDS_P2;PMS_P1;PMS_P2;Temp;Humidity;BMP_temperature;BMP_pressure;BME280_temperature;BME280_humidity;BME280_pressure;Samples;Min_cycle;Max_cycle;Signal;HPM_P1;HPM_P2
2021/08/03 00:01:14;;;;;;;1.10;1.00;;;18.70;1.00;;;;;;4977549;28;20481;-80
2021/08/03 00:03:53;;;;;;;1.00;0.90;;;18.70;1.00;;;;;;4975450;28;20465;-80
2021/08/03 00:06:31;;;;;;;1.20;1.10;;;18.70;1.00;;;;;;4971275;28;20497;-81
2021/08/03 00:09:01;;;;;;;1.20;0.80;;;18.70;1.00;;;;;;4982382;28;20449;-78
2021/08/03 00:11:30;;;;;;;1.37;0.90;;;18.70;1.00;;;;;;4990808;28;20466;-80
2021/08/03 00:14:00;;;;;;;1.00;0.90;;;18.70;1.00;;;;;;4980665;28;20481;-80
2021/08/03 00:16:34;;;;;;;0.93;0.90;;;18.80;1.00;;;;;;4964307;28;20474;-80
2021/08/03 00:19:02;;;;;;;1.27;0.90;;;18.80;1.00;;;;;;4969341;28;20513;-80
2021/08/03 00:21:30;;;;;;;1.27;0.70;;;18.80;1.00;;;;;;4975164;28;20490;-80
2021/08/03 00:23:59;;;;;;;0.83;0.83;;;18.70;1.00;;;;;;4985128;28;20885;-80
2021/08/03 00:26:28;;;;;;;1.63;1.00;;;18.80;1.00;;;;;;4974060;28;20547;-79
2021/08/03 00:28:57;;;;;;;2.40;1.07;;;18.70;1.00;;;;;;4975805;28;20517;-80
2021/08/03 00:31:26;;;;;;;1.20;1.00;;;18.60;1.00;;;;;;4973219;28;20484;-80
2021/08/03 00:33:56;;;;;;;1.73;0.93;;;18.50;1.00;;;;;;4974401;28;20493;-80
2021/08/03 00:36:26;;;;;;;1.00;0.90;;;18.60;1.00;;;;;;4989271;28;20879;-79
2021/08/03 00:38:55;;;;;;;2.33;0.90;;;18.70;1.00;;;;;;4984838;28;20548;-81
2021/08/03 00:41:26;;;;;;;0.87;0.80;;;18.70;1.00;;;;;;4991155;28;20544;-81
2021/08/03 00:43:56;;;;;;;1.23;1.23;;;18.70;1.00;;;;;;4973085;28;20497;-80
2021/08/03 00:46:24;;;;;;;0.80;0.80;;;18.80;1.00;;;;;;4973804;28;20475;-82
2021/08/03 00:48:53;;;;;;;0.87;0.87;;;18.80;1.00;;;;;;4974476;28;21187;-80
2021/08/03 00:51:22;;;;;;;0.80;0.80;;;18.90;1.00;;;;;;4974003;28;20478;-81
2021/08/03 00:53:50;;;;;;;1.10;1.00;;;18.80;1.00;;;;;;4974374;28;20494;-80
2021/08/03 00:56:18;;;;;;;0.93;0.83;;;18.70;1.00;;;;;;4971718;28;20492;-81
2021/08/03 00:58:46;;;;;;;3.43;1.00;;;18.80;1.00;;;;;;4976987;28;21022;-82
2021/08/03 01:01:16;;;;;;;1.20;1.10;;;18.80;1.00;;;;;;4987055;28;20541;-81
2021/08/03 01:03:44;;;;;;;1.63;0.93;;;18.80;1.00;;;;;;4981615;28;20460;-81
2021/08/03 01:06:18;;;;;;;0.80;0.80;;;18.80;1.00;;;;;;4974345;28;20474;-80
2021/08/03 01:08:57;;;;;;;0.90;0.90;;;18.80;1.00;;;;;;4988136;28;20441;-82
2021/08/03 01:11:32;;;;;;;1.23;1.00;;;18.70;1.00;;;;;;4977532;28;20854;-79
2021/08/03 01:14:11;;;;;;;0.93;0.90;;;18.70;1.00;;;;;;4974472;28;20485;-82
2021/08/03 01:16:51;;;;;;;0.83;0.83;;;18.60;1.00;;;;;;4978504;28;20449;-81
2021/08/03 01:19:23;;;;;;;0.73;0.73;;;18.70;1.00;;;;;;4989556;28;20489;-81
2021/08/03 01:22:01;;;;;;;0.90;0.90;;;18.70;1.00;;;;;;4982393;28;20490;-80
2021/08/03 01:25:00;;;;;;;0.90;0.90;;;18.70;1.00;;;;;;4980287;28;20497;-81
2021/08/03 01:27:38;;;;;;;0.77;0.77;;;18.60;1.00;;;;;;4969172;28;20518;-79
2021/08/03 01:30:08;;;;;;;1.07;0.97;;;18.70;1.00;;;;;;4971782;28;20895;-79
2021/08/03 01:32:43;;;;;;;0.80;0.80;;;18.80;1.00;;;;;;4970047;28;20490;-79
2021/08/03 01:35:12;;;;;;;0.90;0.90;;;18.70;1.00;;;;;;4967718;28;20486;-79
2021/08/03 01:37:41;;;;;;;1.47;0.73;;;18.70;1.00;;;;;;4973561;28;20890;-79
2021/08/03 01:40:13;;;;;;;1.07;0.90;;;18.60;1.00;;;;;;4974480;28;20486;-80
2021/08/03 01:42:43;;;;;;;0.90;0.90;;;18.30;1.00;;;;;;4975230;28;20459;-80
2021/08/03 01:45:15;;;;;;;1.13;0.90;;;18.30;1.00;;;;;;4973721;28;20457;-80
2021/08/03 01:47:43;;;;;;;1.17;1.07;;;18.20;1.00;;;;;;4961981;28;20451;-80
2021/08/03 01:50:12;;;;;;;1.90;1.00;;;18.20;1.00;;;;;;4972825;28;20479;-80
2021/08/03 01:52:42;;;;;;;0.80;0.80;;;18.10;1.00;;;;;;4987376;28;20994;-80
2021/08/03 01:55:11;;;;;;;1.00;0.90;;;18.10;1.00;;;;;;4987494;28;20510;-80
2021/08/03 01:57:43;;;;;;;1.17;1.03;;;18.00;1.00;;;;;;4972001;28;20458;-80
2021/08/03 02:00:13;;;;;;;1.70;0.90;;;18.00;1.00;;;;;;4972714;28;20484;-80
2021/08/03 02:02:42;;;;;;;1.77;1.00;;;18.10;1.00;;;;;;4970801;28;20458;-81
2021/08/03 02:05:12;;;;;;;1.13;1.00;;;18.10;1.00;;;;;;4976774;28;20559;-80
2021/08/03 02:07:42;;;;;;;1.10;1.07;;;18.20;1.00;;;;;;4973542;28;20469;-81
2021/08/03 02:10:11;;;;;;;1.87;1.10;;;18.20;1.00;;;;;;4973797;28;20521;-81
2021/08/03 02:12:39;;;;;;;1.10;1.00;;;18.10;1.00;;;;;;4972808;28;20465;-81
2021/08/03 02:15:09;;;;;;;1.20;1.10;;;17.90;1.00;;;;;;4973056;28;20569;-81
2021/08/03 02:17:39;;;;;;;2.23;1.10;;;17.90;1.00;;;;;;4972839;28;20492;-81
2021/08/03 02:20:08;;;;;;;0.90;0.90;;;17.90;1.00;;;;;;4974858;28;20473;-81
2021/08/03 02:22:37;;;;;;;3.30;1.30;;;17.80;1.00;;;;;;4985959;28;20454;-80
2021/08/03 02:25:09;;;;;;;0.97;0.97;;;17.80;1.00;;;;;;4977668;28;20442;-80
2021/08/03 02:27:38;;;;;;;1.20;1.10;;;17.90;1.00;;;;;;4968235;28;20462;-80
2021/08/03 02:30:07;;;;;;;1.13;1.03;;;18.00;1.00;;;;;;4972946;28;20826;-82
2021/08/03 02:32:43;;;;;;;1.37;0.90;;;18.20;1.00;;;;;;4991181;28;20461;-80
2021/08/03 02:35:16;;;;;;;1.93;1.00;;;18.30;1.00;;;;;;4985438;28;20508;-81
2021/08/03 02:37:49;;;;;;;0.90;0.90;;;18.40;1.00;;;;;;4972187;28;20541;-80
2021/08/03 02:40:17;;;;;;;1.00;0.90;;;18.50;1.00;;;;;;4987874;28;20480;-80
2021/08/03 02:42:46;;;;;;;1.20;0.80;;;18.50;1.00;;;;;;4972503;28;20487;-82
2021/08/03 02:45:17;;;;;;;0.83;0.80;;;18.40;1.00;;;;;;4972637;28;20452;-81
2021/08/03 02:47:51;;;;;;;3.43;1.20;;;18.30;1.00;;;;;;4974308;28;20828;-80
2021/08/03 02:50:21;;;;;;;1.90;1.00;;;18.10;1.00;;;;;;4987824;28;21178;-80
2021/08/03 02:52:53;;;;;;;2.00;1.00;;;18.00;1.00;;;;;;4972908;28;20455;-81
2021/08/03 02:55:24;;;;;;;1.00;0.77;;;17.90;1.00;;;;;;4971224;28;20548;-82
2021/08/03 02:57:59;;;;;;;0.80;0.80;;;17.90;1.00;;;;;;4985355;28;20446;-80
2021/08/03 03:00:29;;;;;;;1.47;1.03;;;17.80;1.00;;;;;;4985468;28;20529;-80
2021/08/03 03:03:00;;;;;;;1.27;1.17;;;17.80;1.00;;;;;;4969476;28;20565;-80
2021/08/03 03:05:32;;;;;;;3.20;0.90;;;17.70;1.00;;;;;;4973531;28;20473;-80
2021/08/03 03:08:06;;;;;;;0.97;0.90;;;17.70;1.00;;;;;;4972032;28;20462;-79
2021/08/03 03:10:38;;;;;;;1.53;0.97;;;17.90;1.00;;;;;;4972446;28;20489;-80
2021/08/03 03:13:13;;;;;;;0.90;0.90;;;18.00;1.00;;;;;;4985361;28;20469;-81
2021/08/03 03:15:42;;;;;;;1.00;0.90;;;18.00;1.00;;;;;;4976746;28;21108;-80
2021/08/03 03:18:12;;;;;;;0.90;0.90;;;18.10;1.00;;;;;;4972325;28;20821;-81
2021/08/03 03:20:41;;;;;;;1.13;1.03;;;18.20;1.00;;;;;;4979900;28;20980;-80
2021/08/03 03:23:10;;;;;;;1.50;0.87;;;18.30;1.00;;;;;;4974806;28;20522;-80
2021/08/03 03:25:39;;;;;;;1.10;1.00;;;18.30;1.00;;;;;;4971777;28;20473;-80
2021/08/03 03:28:07;;;;;;;3.80;0.97;;;18.30;1.00;;;;;;4978641;28;20465;-80
2021/08/03 03:30:37;;;;;;;2.90;1.50;;;18.20;1.00;;;;;;4978262;28;20976;-81
2021/08/03 03:33:06;;;;;;;2.40;0.90;;;18.20;1.00;;;;;;4985974;28;20540;-80
2021/08/03 03:35:37;;;;;;;0.97;0.80;;;18.10;1.00;;;;;;4976946;28;21081;-80
2021/08/03 03:38:06;;;;;;;1.10;1.00;;;18.20;1.00;;;;;;4974368;28;20467;-80
2021/08/03 03:40:35;;;;;;;1.23;0.90;;;18.20;1.00;;;;;;4979898;28;20535;-80
2021/08/03 03:43:04;;;;;;;1.07;0.87;;;18.20;1.00;;;;;;4976795;28;20489;-80
2021/08/03 03:45:33;;;;;;;1.17;1.07;;;18.20;1.00;;;;;;4971042;28;20466;-80
2021/08/03 03:48:04;;;;;;;1.10;1.10;;;18.20;1.00;;;;;;4978240;28;21020;-81
2021/08/03 03:50:37;;;;;;;1.03;0.93;;;18.20;1.00;;;;;;4970808;28;20544;-80
2021/08/03 03:53:09;;;;;;;1.83;0.90;;;18.20;1.00;;;;;;4982414;28;20471;-80
2021/08/03 03:55:39;;;;;;;1.00;0.90;;;18.10;1.00;;;;;;4976047;28;21038;-81
2021/08/03 03:58:08;;;;;;;1.53;1.33;;;18.20;1.00;;;;;;4971866;28;20466;-80
2021/08/03 04:00:39;;;;;;;1.03;0.93;;;18.10;1.00;;;;;;4975155;28;20484;-81
2021/08/03 04:03:09;;;;;;;1.80;0.97;;;18.10;1.00;;;;;;4966409;28;20450;-80
2021/08/03 04:05:42;;;;;;;1.20;1.10;;;17.90;1.00;;;;;;4978845;28;21400;-80
2021/08/03 04:08:10;;;;;;;2.33;2.10;;;17.90;99.90;;;;;;4960416;28;20851;-80
2021/08/03 04:10:41;;;;;;;1.57;0.90;;;17.70;99.90;;;;;;4973791;28;20484;-80
2021/08/03 04:13:11;;;;;;;0.90;0.90;;;17.70;1.00;;;;;;4970365;28;20453;-81
2021/08/03 04:15:40;;;;;;;1.00;0.90;;;17.70;1.00;;;;;;4978224;28;20997;-79
2021/08/03 04:18:08;;;;;;;0.90;0.83;;;17.80;99.90;;;;;;4973450;28;20460;-80
2021/08/03 04:20:37;;;;;;;1.03;0.93;;;17.90;1.00;;;;;;4972478;28;20989;-81
2021/08/03 04:23:06;;;;;;;1.10;1.00;;;18.00;99.90;;;;;;4973680;28;20454;-81
2021/08/03 04:25:35;;;;;;;0.97;0.90;;;18.10;99.90;;;;;;4973097;28;20497;-80
2021/08/03 04:28:03;;;;;;;0.70;0.70;;;18.10;99.90;;;;;;4969946;28;20453;-82
2021/08/03 04:30:32;;;;;;;2.93;0.80;;;17.90;99.90;;;;;;4970346;28;20597;-81
2021/08/03 04:33:00;;;;;;;0.93;0.83;;;17.70;99.90;;;;;;4969895;28;20480;-81
2021/08/03 04:35:28;;;;;;;1.10;1.00;;;17.50;99.90;;;;;;4969836;28;20489;-80
2021/08/03 04:37:56;;;;;;;1.07;1.00;;;17.60;99.90;;;;;;4967336;28;20454;-81
2021/08/03 04:40:26;;;;;;;0.80;0.80;;;17.60;99.90;;;;;;4972587;28;20474;-79
2021/08/03 04:42:54;;;;;;;1.10;1.00;;;17.50;99.90;;;;;;4972909;28;20475;-79
2021/08/03 04:45:22;;;;;;;1.17;0.90;;;17.50;1.00;;;;;;4974847;28;20955;-79
2021/08/03 04:47:52;;;;;;;1.37;0.80;;;17.60;99.90;;;;;;4985239;28;20458;-79
2021/08/03 04:50:22;;;;;;;1.33;0.90;;;17.70;99.90;;;;;;4981580;28;20476;-80
2021/08/03 04:52:50;;;;;;;0.80;0.80;;;17.80;1.00;;;;;;4976760;28;21015;-80
2021/08/03 04:55:19;;;;;;;0.90;0.90;;;17.80;99.90;;;;;;4987727;28;20479;-81
2021/08/03 04:57:48;;;;;;;0.80;0.80;;;17.80;99.90;;;;;;4974036;28;20460;-81
2021/08/03 05:00:17;;;;;;;0.90;0.90;;;17.90;99.90;;;;;;4974255;28;20550;-80
2021/08/03 05:02:46;;;;;;;1.10;1.00;;;17.80;99.90;;;;;;4979888;28;20470;-80
2021/08/03 05:05:16;;;;;;;2.50;1.03;;;17.80;99.90;;;;;;4971926;28;20464;-81
2021/08/03 05:07:55;;;;;;;1.03;0.93;;;17.90;99.90;;;;;;4979341;28;20981;-81
2021/08/03 05:10:23;;;;;;;1.60;1.00;;;17.90;99.90;;;;;;4973492;28;20571;-80
2021/08/03 05:12:52;;;;;;;2.00;1.00;;;18.00;99.90;;;;;;4980201;28;20486;-79
2021/08/03 05:15:21;;;;;;;1.07;0.90;;;18.00;99.90;;;;;;4974757;28;20560;-81
2021/08/03 05:17:49;;;;;;;0.97;0.80;;;18.10;99.90;;;;;;4975419;28;20514;-80
2021/08/03 05:20:17;;;;;;;0.70;0.70;;;18.20;99.90;;;;;;4974170;28;20547;-81
2021/08/03 05:22:46;;;;;;;1.00;0.90;;;18.20;99.90;;;;;;4973586;28;20463;-80
2021/08/03 05:25:15;;;;;;;1.43;1.10;;;18.20;99.90;;;;;;4973936;28;21040;-82
2021/08/03 05:27:43;;;;;;;1.00;0.80;;;18.20;99.90;;;;;;4974143;28;20461;-80
2021/08/03 05:30:13;;;;;;;1.10;1.00;;;18.20;99.90;;;;;;4974166;28;20477;-80
2021/08/03 05:32:41;;;;;;;0.83;0.80;;;18.20;99.90;;;;;;4987627;28;20809;-79
2021/08/03 05:35:11;;;;;;;1.07;0.90;;;18.20;99.90;;;;;;4973785;28;20486;-80
2021/08/03 05:37:39;;;;;;;1.47;1.10;;;18.20;99.90;;;;;;4971851;28;20490;-81
2021/08/03 05:40:12;;;;;;;0.93;0.90;;;18.20;99.90;;;;;;4973047;28;20473;-80
2021/08/03 05:42:41;;;;;;;0.80;0.80;;;18.30;99.90;;;;;;4980779;28;20470;-84
2021/08/03 05:45:10;;;;;;;0.90;0.83;;;18.30;99.90;;;;;;4971345;28;20454;-84
2021/08/03 05:47:39;;;;;;;1.10;1.00;;;18.30;99.90;;;;;;4975479;28;20810;-84
2021/08/03 05:50:09;;;;;;;3.17;1.00;;;18.30;99.90;;;;;;4986904;28;20489;-83
2021/08/03 05:52:37;;;;;;;1.50;1.00;;;18.20;99.90;;;;;;4972876;28;20454;-85
2021/08/03 05:55:06;;;;;;;1.00;0.90;;;18.10;99.90;;;;;;4982671;28;20552;-84
2021/08/03 05:57:35;;;;;;;1.10;1.00;;;18.00;99.90;;;;;;4972138;28;20504;-85
2021/08/03 06:00:04;;;;;;;1.17;1.07;;;18.00;99.90;;;;;;4984243;28;20471;-84
2021/08/03 06:02:32;;;;;;;1.00;0.90;;;18.00;99.90;;;;;;4987757;28;20550;-84
2021/08/03 06:05:02;;;;;;;0.80;0.80;;;18.10;99.90;;;;;;4965035;28;20450;-84
2021/08/03 06:07:36;;;;;;;0.90;0.90;;;18.20;99.90;;;;;;4970582;28;20841;-82
2021/08/03 06:10:05;;;;;;;0.80;0.80;;;18.20;99.90;;;;;;4988125;28;20957;-83
2021/08/03 06:12:35;;;;;;;0.90;0.77;;;18.20;99.90;;;;;;4970817;28;20558;-84
2021/08/03 06:15:03;;;;;;;1.20;0.83;;;18.20;99.90;;;;;;4970719;28;21030;-83
2021/08/03 06:17:36;;;;;;;0.90;0.73;;;18.20;99.90;;;;;;4959588;28;21274;-83
2021/08/03 06:20:07;;;;;;;1.10;0.90;;;18.10;99.90;;;;;;4972080;28;20463;-85
2021/08/03 06:22:36;;;;;;;1.10;1.00;;;18.00;99.90;;;;;;4987588;28;20459;-83
2021/08/03 06:25:08;;;;;;;1.63;1.00;;;18.00;99.90;;;;;;4971324;28;20490;-83
2021/08/03 06:27:36;;;;;;;0.73;0.73;;;18.00;99.90;;;;;;4973297;28;20433;-83
2021/08/03 06:30:07;;;;;;;2.03;0.90;;;18.20;99.90;;;;;;4987039;28;20485;-85
2021/08/03 06:32:35;;;;;;;1.23;0.90;;;18.20;99.90;;;;;;4987795;28;20534;-84
2021/08/03 06:35:06;;;;;;;1.80;1.00;;;18.20;99.90;;;;;;4972172;28;20461;-83
2021/08/03 06:37:34;;;;;;;1.10;1.00;;;18.20;99.90;;;;;;4974923;28;20466;-84
2021/08/03 06:40:02;;;;;;;1.33;0.80;;;18.30;99.90;;;;;;4984066;28;20517;-84
2021/08/03 06:42:40;;;;;;;1.17;0.97;;;18.40;99.90;;;;;;4969681;28;20451;-83
2021/08/03 06:45:13;;;;;;;0.90;0.70;;;18.60;99.90;;;;;;4970642;28;20464;-84
2021/08/03 06:47:50;;;;;;;1.63;0.93;;;18.80;99.90;;;;;;4965368;28;20867;-84
2021/08/03 06:50:22;;;;;;;1.83;0.80;;;19.00;99.90;;;;;;4972077;28;21093;-84
2021/08/03 06:52:51;;;;;;;1.07;1.00;;;19.00;99.90;;;;;;4972819;28;20457;-83
2021/08/03 06:55:27;;;;;;;1.23;0.90;;;18.90;99.90;;;;;;4986170;28;20477;-83
2021/08/03 06:57:59;;;;;;;1.33;0.77;;;18.90;99.90;;;;;;4953040;29;20476;-83
2021/08/03 07:00:32;;;;;;;1.43;0.90;;;18.90;99.90;;;;;;4979250;28;20480;-84
2021/08/03 07:03:00;;;;;;;1.00;0.90;;;18.90;99.90;;;;;;4976692;28;20540;-84
2021/08/03 07:05:32;;;;;;;2.07;0.80;;;18.90;99.90;;;;;;4971976;28;20541;-84
2021/08/03 07:08:01;;;;;;;0.80;0.80;;;18.90;99.90;;;;;;4967649;28;20449;-84
2021/08/03 07:10:29;;;;;;;2.07;1.10;;;19.00;99.90;;;;;;4970761;28;20475;-84
2021/08/03 07:12:58;;;;;;;0.70;0.70;;;19.10;99.90;;;;;;4969862;28;20495;-85
2021/08/03 07:15:28;;;;;;;0.80;0.80;;;19.10;99.90;;;;;;4970697;28;20892;-84
2021/08/03 07:17:56;;;;;;;1.00;0.90;;;19.20;99.90;;;;;;4970697;28;20471;-84
2021/08/03 07:20:25;;;;;;;0.80;0.70;;;19.40;99.90;;;;;;4955766;28;20479;-84
2021/08/03 07:22:56;;;;;;;1.17;0.90;;;19.50;99.90;;;;;;4970956;28;20458;-84
2021/08/03 07:25:25;;;;;;;1.23;0.90;;;19.50;99.90;;;;;;4969811;28;20467;-85
2021/08/03 07:27:53;;;;;;;1.33;0.80;;;19.50;99.90;;;;;;4972347;28;20443;-85
2021/08/03 07:30:23;;;;;;;1.20;1.00;;;19.50;99.90;;;;;;4971726;28;20519;-84
2021/08/03 07:32:51;;;;;;;1.23;1.00;;;19.60;99.90;;;;;;4969667;28;20499;-83
2021/08/03 07:35:19;;;;;;;1.37;0.83;;;19.60;99.90;;;;;;4987153;28;20969;-84
2021/08/03 07:37:47;;;;;;;1.80;1.00;;;19.60;99.90;;;;;;4971949;28;21069;-84
2021/08/03 07:40:17;;;;;;;0.83;0.83;;;19.70;99.90;;;;;;4971135;28;20487;-84
2021/08/03 07:42:45;;;;;;;1.30;0.80;;;19.70;99.90;;;;;;4986939;28;20458;-84
2021/08/03 07:45:13;;;;;;;1.27;0.90;;;19.80;99.90;;;;;;4984403;28;20474;-85
2021/08/03 07:47:42;;;;;;;0.80;0.80;;;19.80;99.90;;;;;;4969024;28;20459;-84
2021/08/03 07:50:11;;;;;;;0.90;0.90;;;19.90;99.90;;;;;;4971748;28;20479;-84
2021/08/03 07:52:39;;;;;;;1.80;1.27;;;19.90;99.90;;;;;;4985673;28;20458;-84
2021/08/03 07:55:09;;;;;;;1.10;1.00;;;19.90;99.90;;;;;;4963746;28;20208;-84
2021/08/03 07:57:38;;;;;;;0.80;0.73;;;20.00;99.90;;;;;;4964028;28;20506;-84
2021/08/03 08:00:07;;;;;;;3.47;0.83;;;20.10;99.90;;;;;;4969027;28;20447;-84
2021/08/03 08:02:38;;;;;;;2.53;1.60;;;20.10;99.90;;;;;;4975431;28;20463;-84
2021/08/03 08:05:08;;;;;;;1.00;0.97;;;20.00;99.90;;;;;;4970037;28;21019;-84
2021/08/03 08:07:36;;;;;;;1.17;0.70;;;20.00;99.90;;;;;;4970764;28;20876;-83
2021/08/03 08:10:05;;;;;;;0.73;0.73;;;19.90;99.90;;;;;;4971347;28;20451;-84
2021/08/03 08:12:34;;;;;;;0.93;0.93;;;19.90;99.90;;;;;;4970123;28;20463;-83
2021/08/03 08:15:04;;;;;;;0.90;0.90;;;19.90;99.90;;;;;;4966930;28;20498;-84
2021/08/03 08:17:32;;;;;;;1.67;0.90;;;19.80;99.90;;;;;;4969099;28;20487;-84
2021/08/03 08:20:00;;;;;;;1.00;1.00;;;19.80;99.90;;;;;;4983016;28;20487;-86
2021/08/03 08:22:29;;;;;;;0.80;0.80;;;19.70;99.90;;;;;;4975795;28;20440;-85
2021/08/03 08:24:57;;;;;;;1.37;0.80;;;19.70;99.90;;;;;;4988171;28;20459;-84
2021/08/03 08:27:25;;;;;;;1.20;0.90;;;19.70;99.90;;;;;;4974020;28;20438;-85
2021/08/03 08:29:53;;;;;;;0.90;0.90;;;19.70;99.90;;;;;;4972345;28;20262;-85
2021/08/03 08:32:22;;;;;;;1.73;1.00;;;19.70;99.90;;;;;;4974404;28;20529;-84
2021/08/03 08:34:51;;;;;;;1.17;0.80;;;19.70;99.90;;;;;;4973527;28;20454;-83
2021/08/03 08:37:19;;;;;;;1.60;1.00;;;19.70;99.90;;;;;;4974280;28;20486;-84
2021/08/03 08:39:48;;;;;;;3.37;1.10;;;19.80;99.90;;;;;;4972847;28;21302;-84
2021/08/03 08:42:18;;;;;;;1.90;0.90;;;19.80;99.90;;;;;;4968704;28;20506;-83
2021/08/03 08:44:48;;;;;;;1.10;0.90;;;19.80;99.90;;;;;;4968512;28;20953;-84
2021/08/03 08:47:17;;;;;;;1.43;0.97;;;19.90;99.90;;;;;;4973652;28;20459;-84
2021/08/03 08:49:47;;;;;;;1.37;1.27;;;20.00;99.90;;;;;;4972193;28;20518;-84
2021/08/03 08:52:16;;;;;;;1.00;0.90;;;20.10;99.90;;;;;;4973058;28;20467;-83
2021/08/03 08:54:44;;;;;;;0.80;0.80;;;20.20;99.90;;;;;;4972376;28;20506;-84
2021/08/03 08:57:14;;;;;;;1.87;1.00;;;20.30;99.90;;;;;;4972953;28;20517;-83
2021/08/03 08:59:42;;;;;;;1.10;1.00;;;20.30;99.90;;;;;;4973173;28;21212;-84
2021/08/03 09:02:10;;;;;;;3.10;2.80;;;20.30;99.90;;;;;;4974180;28;20485;-84
2021/08/03 09:04:42;;;;;;;1.50;0.90;;;20.30;99.90;;;;;;4971767;28;20465;-84
2021/08/03 09:07:12;;;;;;;1.10;0.87;;;20.30;99.90;;;;;;4973905;28;20461;-84
2021/08/03 09:09:42;;;;;;;1.77;0.97;;;20.30;99.90;;;;;;4972756;28;20451;-84
2021/08/03 09:12:10;;;;;;;1.27;1.17;;;20.20;99.90;;;;;;4964918;28;20987;-84
2021/08/03 09:14:41;;;;;;;1.10;0.97;;;20.10;99.90;;;;;;4962758;28;20529;-85
2021/08/03 09:17:10;;;;;;;1.23;1.10;;;20.10;99.90;;;;;;4972324;28;20534;-84
2021/08/03 09:19:40;;;;;;;2.70;0.90;;;20.00;99.90;;;;;;4973312;28;20462;-84
2021/08/03 09:22:15;;;;;;;1.77;1.20;;;19.90;99.90;;;;;;4972474;28;20482;-85
2021/08/03 09:24:46;;;;;;;2.07;1.13;;;20.00;99.90;;;;;;4988870;28;20490;-83
2021/08/03 09:27:37;;;;;;;6.80;3.70;;;20.10;1.00;;;;;;4988741;28;20464;-84
2021/08/03 09:30:07;;;;;;;2.37;1.10;;;20.10;1.00;;;;;;4972492;28;20459;-84
2021/08/03 09:32:36;;;;;;;0.90;0.90;;;20.00;1.00;;;;;;4973262;28;20459;-85
2021/08/03 09:35:07;;;;;;;1.13;1.03;;;19.90;1.00;;;;;;4974455;28;20451;-84
2021/08/03 09:37:38;;;;;;;1.80;1.13;;;19.80;1.00;;;;;;4972431;28;20561;-83
2021/08/03 09:40:18;;;;;;;2.00;1.80;;;19.80;17.70;;;;;;4971131;28;20828;-83
2021/08/03 09:42:56;;;;;;;2.27;1.40;;;19.90;99.90;;;;;;4970444;28;20542;-83
2021/08/03 09:45:25;;;;;;;1.47;1.37;;;20.10;99.90;;;;;;4969126;28;20549;-85
2021/08/03 09:48:07;;;;;;;0.80;0.80;;;20.00;99.90;;;;;;4974072;28;20463;-87
2021/08/03 09:50:51;;;;;;;1.17;1.07;;;20.10;1.00;;;;;;4973645;28;20477;-84
2021/08/03 09:53:40;;;;;;;1.20;1.10;;;20.00;1.00;;;;;;4973454;28;20451;-84
2021/08/03 09:56:11;;;;;;;1.33;1.23;;;19.90;40.50;;;;;;4989038;28;20537;-84
2021/08/03 09:59:00;;;;;;;1.03;0.93;;;19.90;11.80;;;;;;4972941;28;20482;-83
2021/08/03 10:01:32;;;;;;;1.10;1.00;;;19.90;99.90;;;;;;4965658;28;20483;-85
2021/08/03 10:04:04;;;;;;;2.70;1.40;;;19.80;1.00;;;;;;4983480;28;20517;-84
2021/08/03 10:06:33;;;;;;;2.20;1.20;;;19.90;99.90;;;;;;4973710;28;20459;-84
2021/08/03 10:09:03;;;;;;;4.07;1.57;;;19.90;99.90;;;;;;4973270;28;20443;-84
2021/08/03 10:11:32;;;;;;;3.30;1.47;;;19.80;1.00;;;;;;4973456;28;20479;-84
2021/08/03 10:14:15;;;;;;;3.30;1.27;;;19.80;1.00;;;;;;4971500;28;20467;-84
2021/08/03 10:16:44;;;;;;;1.10;1.00;;;20.00;1.00;;;;;;4971128;28;20459;-83
2021/08/03 10:19:19;;;;;;;1.10;1.00;;;19.80;99.90;;;;;;4961341;28;20483;-85
2021/08/03 10:21:56;;;;;;;1.20;1.10;;;19.90;99.90;;;;;;4972710;28;20537;-84
2021/08/03 10:24:30;;;;;;;0.87;0.87;;;19.90;99.90;;;;;;4970973;28;20521;-84
2021/08/03 10:27:07;;;;;;;0.90;0.90;;;19.90;1.00;;;;;;4970975;28;20946;-84
2021/08/03 10:29:46;;;;;;;1.03;0.90;;;20.00;1.00;;;;;;4987795;28;20454;-84
2021/08/03 10:32:42;;;;;;;1.60;1.20;;;20.10;1.00;;;;;;4971982;28;20566;-84
2021/08/03 10:35:15;;;;;;;1.47;1.20;;;20.00;94.20;;;;;;4953322;28;20456;-84
2021/08/03 10:38:07;;;;;;;1.20;1.00;;;20.00;1.00;;;;;;4968006;28;20459;-83
2021/08/03 10:41:18;;;;;;;1.10;1.00;;;19.90;99.90;;;;;;4953756;28;21015;-84
2021/08/03 10:43:54;;;;;;;1.30;1.20;;;19.90;99.90;;;;;;4961739;28;20485;-84
2021/08/03 10:46:39;;;;;;;1.00;0.90;;;19.80;99.90;;;;;;4987119;28;20990;-84
2021/08/03 10:49:10;;;;;;;1.00;0.90;;;19.80;99.90;;;;;;4971261;28;20561;-84
2021/08/03 10:51:46;;;;;;;1.67;1.27;;;19.80;1.00;;;;;;4972620;28;21029;-84
2021/08/03 10:54:17;;;;;;;1.43;1.17;;;19.70;99.90;;;;;;4973222;28;20463;-84
2021/08/03 10:57:21;;;;;;;2.43;1.40;;;19.40;1.00;;;;;;4987911;28;20506;-83
2021/08/03 11:00:01;;;;;;;1.40;1.30;;;19.50;99.90;;;;;;4972323;28;21033;-84
2021/08/03 11:02:51;;;;;;;1.67;1.40;;;19.60;99.90;;;;;;4986761;28;20451;-84
2021/08/03 11:05:34;;;;;;;1.30;1.20;;;19.70;99.90;;;;;;4986731;28;20490;-84
2021/08/03 11:08:41;;;;;;;3.37;1.33;;;19.70;1.00;;;;;;4968615;28;20451;-84
2021/08/03 11:11:12;;;;;;;2.53;1.00;;;19.50;1.00;;;;;;4972207;28;20826;-84
2021/08/03 11:13:46;;;;;;;1.90;1.10;;;19.30;99.90;;;;;;4968213;28;20514;-85
2021/08/03 11:16:45;;;;;;;2.90;1.13;;;19.10;1.00;;;;;;4970103;28;20931;-84
2021/08/03 11:19:33;;;;;;;1.00;0.80;;;19.20;99.90;;;;;;4970905;28;20570;-87
2021/08/03 11:22:04;;;;;;;1.03;0.90;;;19.40;99.90;;;;;;4967641;28;20482;-84
2021/08/03 11:24:34;;;;;;;1.83;1.10;;;19.60;99.30;;;;;;4969546;28;20463;-84
2021/08/03 11:27:03;;;;;;;0.87;0.80;;;19.50;99.90;;;;;;4985081;28;21128;-84
2021/08/03 11:29:37;;;;;;;1.17;1.07;;;19.60;1.00;;;;;;4970999;28;20518;-84
2021/08/03 11:32:08;;;;;;;0.90;0.90;;;19.60;99.90;;;;;;4970547;28;20534;-83
2021/08/03 11:34:39;;;;;;;2.30;1.20;;;19.70;99.90;;;;;;4970349;28;20459;-84
2021/08/03 11:37:19;;;;;;;1.00;0.90;;;19.80;99.90;;;;;;4969910;28;21032;-84
2021/08/03 11:39:53;;;;;;;0.97;0.90;;;19.90;99.90;;;;;;4969047;28;20479;-84
2021/08/03 11:42:39;;;;;;;1.00;1.00;;;19.80;1.00;;;;;;4969872;28;20837;-84
2021/08/03 11:45:11;;;;;;;1.27;1.17;;;19.50;1.00;;;;;;4984968;28;20510;-84
2021/08/03 11:47:50;;;;;;;1.80;0.90;;;19.60;99.90;;;;;;4955182;28;20454;-84
2021/08/03 11:50:29;;;;;;;1.27;1.10;;;19.50;4.70;;;;;;4969488;28;20843;-83
2021/08/03 11:53:05;;;;;;;0.90;0.90;;;19.40;99.90;;;;;;4970696;28;20450;-84
2021/08/03 11:55:34;;;;;;;1.00;0.90;;;19.20;99.90;;;;;;4969874;28;20524;-85
2021/08/03 11:58:03;;;;;;;1.27;0.90;;;19.20;96.10;;;;;;4970112;28;20447;-84
2021/08/03 12:00:31;;;;;;;1.87;1.77;;;19.20;99.90;;;;;;4974501;28;20483;-83
2021/08/03 12:03:02;;;;;;;1.00;0.90;;;19.20;99.90;;;;;;4969194;28;20463;-84
2021/08/03 12:05:31;;;;;;;1.10;1.00;;;19.20;99.90;;;;;;4970937;28;20521;-84
2021/08/03 12:08:06;;;;;;;1.10;1.00;;;19.30;99.90;;;;;;4970348;28;20451;-84
2021/08/03 12:10:36;;;;;;;1.47;1.00;;;19.40;99.90;;;;;;4969743;28;20833;-81
2021/08/03 12:13:06;;;;;;;2.60;1.00;;;19.50;99.90;;;;;;4968953;28;20938;-80
2021/08/03 12:15:45;;;;;;;0.83;0.80;;;19.20;99.90;;;;;;4932860;28;1135844;-82
2021/08/03 12:18:16;;;;;;;0.90;0.90;;;19.20;96.30;;;;;;4971676;28;20214;-82
2021/08/03 12:20:51;;;;;;;0.70;0.70;;;19.10;55.60;;;;;;4986287;28;20482;-82
2021/08/03 12:23:22;;;;;;;1.40;0.90;;;19.10;1.00;;;;;;4971904;28;20462;-81
2021/08/03 12:25:53;;;;;;;0.70;0.63;;;19.20;1.00;;;;;;4972856;28;20522;-81
2021/08/03 12:28:34;;;;;;;1.00;0.90;;;19.20;1.00;;;;;;4972456;28;20489;-81
2021/08/03 12:31:27;;;;;;;1.37;1.13;;;19.30;1.00;;;;;;4986533;28;20491;-82
2021/08/03 12:34:11;;;;;;;0.70;0.70;;;19.50;1.00;;;;;;4971355;28;20452;-82
2021/08/03 12:36:45;;;;;;;1.00;0.70;;;19.60;1.00;;;;;;4972232;28;20534;-81
2021/08/03 12:39:20;;;;;;;0.50;0.50;;;19.70;1.00;;;;;;4971017;28;20475;-82
2021/08/03 12:42:18;;;;;;;0.60;0.60;;;19.90;1.00;;;;;;4971514;28;21041;-82
2021/08/03 12:44:48;;;;;;;0.70;0.70;;;19.90;1.00;;;;;;4965157;28;20542;-81
2021/08/03 12:47:18;;;;;;;0.63;0.63;;;20.00;1.00;;;;;;4971277;28;20542;-84
2021/08/03 12:49:49;;;;;;;0.50;0.50;;;20.00;1.00;;;;;;4984089;28;20873;-81
2021/08/03 12:52:19;;;;;;;0.60;0.60;;;19.90;99.90;;;;;;4971902;28;20439;-82
2021/08/03 12:54:59;;;;;;;0.70;0.70;;;19.80;99.90;;;;;;4968312;28;20459;-81
2021/08/03 12:57:45;;;;;;;0.80;0.67;;;19.80;1.00;;;;;;4969844;28;20450;-82
2021/08/03 13:00:32;;;;;;;0.90;0.90;;;19.60;1.00;;;;;;4968929;28;20482;-83
2021/08/03 13:03:05;;;;;;;2.27;0.70;;;19.70;1.00;;;;;;4970919;28;20466;-80
2021/08/03 13:05:36;;;;;;;1.23;1.00;;;19.70;1.00;;;;;;4973440;28;20467;-80
2021/08/03 13:08:05;;;;;;;1.80;0.70;;;19.50;1.00;;;;;;4973933;28;21030;-79
2021/08/03 13:10:34;;;;;;;0.60;0.60;;;19.50;1.00;;;;;;4971775;28;20482;-82
2021/08/03 13:13:04;;;;;;;1.00;0.80;;;19.70;1.00;;;;;;4971773;28;20455;-81
2021/08/03 13:15:33;;;;;;;1.17;0.83;;;19.60;1.00;;;;;;4974201;28;20470;-80